sensor_id;sensor_type;location;lat;lon;timestamp;P1;durP1;ratioP1;P2;durP2;ratioP2
70247;SDS011;57641;51.416;5.506;2023-04-03T00:01:32;6.60;;;4.68;;
70247;SDS011;57641;51.416;5.506;2023-04-03T00:03:58;6.65;;;4.43;;
70247;SDS011;57641;51.416;5.506;2023-04-03T00:06:24;5.60;;;4.30;;
70247;SDS011;57641;51.416;5.506;2023-04-03T00:08:52;7.55;;;4.68;;
70247;SDS011;57641;51.416;5.506;2023-04-03T00:11:18;8.23;;;4.63;;
70247;SDS011;57641;51.416;5.506;2023-04-03T00:13:47;7.07;;;4.85;;
70247;SDS011;57641;51.416;5.506;2023-04-03T00:16:13;8.98;;;5.05;;
70247;SDS011;57641;51.416;5.506;2023-04-03T00:18:39;8.20;;;4.45;;
70247;SDS011;57641;51.416;5.506;2023-04-03T00:21:09;10.15;;;5.20;;
70247;SDS011;57641;51.416;5.506;2023-04-03T00:23:37;6.50;;;4.72;;
70247;SDS011;57641;51.416;5.506;2023-04-03T00:26:03;6.47;;;4.70;;
70247;SDS011;57641;51.416;5.506;2023-04-03T00:28:28;6.93;;;4.85;;
70247;SDS011;57641;51.416;5.506;2023-04-03T00:30:54;7.80;;;4.55;;
70247;SDS011;57641;51.416;5.506;2023-04-03T00:33:20;6.30;;;4.75;;
70247;SDS011;57641;51.416;5.506;2023-04-03T00:35:46;7.93;;;4.82;;
70247;SDS011;57641;51.416;5.506;2023-04-03T00:38:15;7.90;;;5.47;;
70247;SDS011;57641;51.416;5.506;2023-04-03T00:40:42;8.07;;;4.80;;
70247;SDS011;57641;51.416;5.506;2023-04-03T00:43:11;8.55;;;5.15;;
70247;SDS011;57641;51.416;5.506;2023-04-03T00:45:40;8.43;;;5.07;;
70247;SDS011;57641;51.416;5.506;2023-04-03T00:48:08;8.75;;;4.93;;
70247;SDS011;57641;51.416;5.506;2023-04-03T00:50:39;8.20;;;5.20;;
70247;SDS011;57641;51.416;5.506;2023-04-03T00:53:07;8.70;;;5.05;;
70247;SDS011;57641;51.416;5.506;2023-04-03T00:55:36;7.60;;;5.30;;
70247;SDS011;57641;51.416;5.506;2023-04-03T00:58:03;7.50;;;5.50;;
70247;SDS011;57641;51.416;5.506;2023-04-03T01:00:32;8.65;;;5.18;;
70247;SDS011;57641;51.416;5.506;2023-04-03T01:02:59;8.10;;;5.13;;
70247;SDS011;57641;51.416;5.506;2023-04-03T01:05:25;8.32;;;5.43;;
70247;SDS011;57641;51.416;5.506;2023-04-03T01:07:51;7.60;;;5.35;;
70247;SDS011;57641;51.416;5.506;2023-04-03T01:10:18;8.07;;;5.20;;
70247;SDS011;57641;51.416;5.506;2023-04-03T01:12:46;7.35;;;5.72;;
70247;SDS011;57641;51.416;5.506;2023-04-03T01:15:25;11.93;;;5.45;;
70247;SDS011;57641;51.416;5.506;2023-04-03T01:17:57;7.93;;;5.45;;
70247;SDS011;57641;51.416;5.506;2023-04-03T01:23:11;7.22;;;5.32;;
70247;SDS011;57641;51.416;5.506;2023-04-03T01:25:49;9.85;;;6.13;;
70247;SDS011;57641;51.416;5.506;2023-04-03T01:28:19;8.95;;;6.18;;
70247;SDS011;57641;51.416;5.506;2023-04-03T01:33:19;8.15;;;6.13;;
70247;SDS011;57641;51.416;5.506;2023-04-03T01:35:44;9.35;;;6.50;;
70247;SDS011;57641;51.416;5.506;2023-04-03T01:38:10;10.60;;;6.22;;
70247;SDS011;57641;51.416;5.506;2023-04-03T01:40:36;10.00;;;6.10;;
70247;SDS011;57641;51.416;5.506;2023-04-03T01:43:01;10.63;;;6.45;;
70247;SDS011;57641;51.416;5.506;2023-04-03T01:45:27;9.02;;;5.82;;
70247;SDS011;57641;51.416;5.506;2023-04-03T01:47:59;8.50;;;5.93;;
70247;SDS011;57641;51.416;5.506;2023-04-03T01:50:24;10.57;;;6.63;;
70247;SDS011;57641;51.416;5.506;2023-04-03T01:52:50;10.88;;;6.90;;
70247;SDS011;57641;51.416;5.506;2023-04-03T01:55:16;7.15;;;6.32;;
70247;SDS011;57641;51.416;5.506;2023-04-03T01:57:41;10.45;;;6.15;;
70247;SDS011;57641;51.416;5.506;2023-04-03T02:00:08;12.23;;;6.03;;
70247;SDS011;57641;51.416;5.506;2023-04-03T02:02:34;9.27;;;6.03;;
70247;SDS011;57641;51.416;5.506;2023-04-03T02:05:03;9.20;;;6.45;;
70247;SDS011;57641;51.416;5.506;2023-04-03T02:07:28;10.63;;;6.00;;
70247;SDS011;57641;51.416;5.506;2023-04-03T02:09:54;11.07;;;6.53;;
70247;SDS011;57641;51.416;5.506;2023-04-03T02:12:20;10.40;;;5.78;;
70247;SDS011;57641;51.416;5.506;2023-04-03T02:14:45;7.97;;;5.90;;
70247;SDS011;57641;51.416;5.506;2023-04-03T02:17:10;10.45;;;6.95;;
70247;SDS011;57641;51.416;5.506;2023-04-03T02:19:36;10.60;;;7.18;;
70247;SDS011;57641;51.416;5.506;2023-04-03T02:22:03;11.35;;;6.35;;
70247;SDS011;57641;51.416;5.506;2023-04-03T02:24:31;11.82;;;5.75;;
70247;SDS011;57641;51.416;5.506;2023-04-03T02:27:01;8.27;;;5.95;;
70247;SDS011;57641;51.416;5.506;2023-04-03T02:29:26;8.13;;;5.50;;
70247;SDS011;57641;51.416;5.506;2023-04-03T02:31:52;7.50;;;5.82;;
70247;SDS011;57641;51.416;5.506;2023-04-03T02:34:17;8.93;;;5.72;;
70247;SDS011;57641;51.416;5.506;2023-04-03T02:36:43;9.38;;;5.78;;
70247;SDS011;57641;51.416;5.506;2023-04-03T02:39:09;7.47;;;5.53;;
70247;SDS011;57641;51.416;5.506;2023-04-03T02:41:35;12.00;;;6.70;;
70247;SDS011;57641;51.416;5.506;2023-04-03T02:44:01;9.57;;;6.05;;
70247;SDS011;57641;51.416;5.506;2023-04-03T02:46:28;10.13;;;6.00;;
70247;SDS011;57641;51.416;5.506;2023-04-03T02:48:53;10.75;;;5.88;;
70247;SDS011;57641;51.416;5.506;2023-04-03T02:51:19;9.50;;;5.70;;
70247;SDS011;57641;51.416;5.506;2023-04-03T02:53:44;9.35;;;5.53;;
70247;SDS011;57641;51.416;5.506;2023-04-03T02:56:10;8.50;;;5.40;;
70247;SDS011;57641;51.416;5.506;2023-04-03T02:58:36;10.02;;;5.30;;
70247;SDS011;57641;51.416;5.506;2023-04-03T03:01:02;9.50;;;6.10;;
70247;SDS011;57641;51.416;5.506;2023-04-03T03:03:30;9.48;;;5.78;;
70247;SDS011;57641;51.416;5.506;2023-04-03T03:06:06;8.82;;;5.40;;
70247;SDS011;57641;51.416;5.506;2023-04-03T03:08:34;8.55;;;5.75;;
70247;SDS011;57641;51.416;5.506;2023-04-03T03:11:01;9.02;;;5.88;;
70247;SDS011;57641;51.416;5.506;2023-04-03T03:13:28;8.15;;;5.00;;
70247;SDS011;57641;51.416;5.506;2023-04-03T03:15:54;7.00;;;4.78;;
70247;SDS011;57641;51.416;5.506;2023-04-03T03:18:21;12.98;;;5.95;;
70247;SDS011;57641;51.416;5.506;2023-04-03T03:20:50;7.75;;;5.22;;
70247;SDS011;57641;51.416;5.506;2023-04-03T03:23:20;7.93;;;5.15;;
70247;SDS011;57641;51.416;5.506;2023-04-03T03:25:47;7.55;;;4.85;;
70247;SDS011;57641;51.416;5.506;2023-04-03T03:28:13;9.40;;;4.78;;
70247;SDS011;57641;51.416;5.506;2023-04-03T03:30:38;9.95;;;5.50;;
70247;SDS011;57641;51.416;5.506;2023-04-03T03:33:04;5.38;;;4.43;;
70247;SDS011;57641;51.416;5.506;2023-04-03T03:35:30;7.63;;;5.15;;
70247;SDS011;57641;51.416;5.506;2023-04-03T03:37:55;7.53;;;4.45;;
70247;SDS011;57641;51.416;5.506;2023-04-03T03:40:21;8.75;;;5.25;;
70247;SDS011;57641;51.416;5.506;2023-04-03T03:42:46;6.82;;;4.88;;
70247;SDS011;57641;51.416;5.506;2023-04-03T03:45:12;8.20;;;5.28;;
70247;SDS011;57641;51.416;5.506;2023-04-03T03:47:37;6.88;;;5.07;;
70247;SDS011;57641;51.416;5.506;2023-04-03T03:50:03;9.27;;;5.15;;
70247;SDS011;57641;51.416;5.506;2023-04-03T03:52:29;6.00;;;5.10;;
70247;SDS011;57641;51.416;5.506;2023-04-03T03:54:58;7.43;;;4.57;;
70247;SDS011;57641;51.416;5.506;2023-04-03T03:57:23;9.30;;;5.15;;
70247;SDS011;57641;51.416;5.506;2023-04-03T03:59:49;9.23;;;5.15;;
70247;SDS011;57641;51.416;5.506;2023-04-03T04:02:16;9.00;;;4.85;;
70247;SDS011;57641;51.416;5.506;2023-04-03T04:04:43;9.60;;;4.72;;
70247;SDS011;57641;51.416;5.506;2023-04-03T04:07:11;7.47;;;4.65;;
70247;SDS011;57641;51.416;5.506;2023-04-03T04:09:37;5.78;;;4.28;;
70247;SDS011;57641;51.416;5.506;2023-04-03T04:12:05;6.90;;;4.60;;
70247;SDS011;57641;51.416;5.506;2023-04-03T04:14:31;6.75;;;4.43;;
70247;SDS011;57641;51.416;5.506;2023-04-03T04:16:56;5.60;;;4.10;;
70247;SDS011;57641;51.416;5.506;2023-04-03T04:19:22;6.50;;;3.67;;
70247;SDS011;57641;51.416;5.506;2023-04-03T04:21:47;9.77;;;4.85;;
70247;SDS011;57641;51.416;5.506;2023-04-03T04:24:13;9.20;;;4.00;;
70247;SDS011;57641;51.416;5.506;2023-04-03T04:26:38;7.85;;;4.15;;
70247;SDS011;57641;51.416;5.506;2023-04-03T04:29:04;6.38;;;4.30;;
70247;SDS011;57641;51.416;5.506;2023-04-03T04:31:29;7.13;;;4.28;;
70247;SDS011;57641;51.416;5.506;2023-04-03T04:33:55;5.35;;;3.70;;
70247;SDS011;57641;51.416;5.506;2023-04-03T04:36:20;7.22;;;3.80;;
70247;SDS011;57641;51.416;5.506;2023-04-03T04:38:46;7.20;;;3.65;;
70247;SDS011;57641;51.416;5.506;2023-04-03T04:41:12;6.93;;;3.72;;
70247;SDS011;57641;51.416;5.506;2023-04-03T04:43:37;9.70;;;4.22;;
70247;SDS011;57641;51.416;5.506;2023-04-03T04:46:03;5.10;;;3.10;;
70247;SDS011;57641;51.416;5.506;2023-04-03T04:48:33;4.85;;;2.97;;
70247;SDS011;57641;51.416;5.506;2023-04-03T04:50:59;6.15;;;3.15;;
70247;SDS011;57641;51.416;5.506;2023-04-03T04:53:26;4.80;;;3.00;;
70247;SDS011;57641;51.416;5.506;2023-04-03T04:55:51;7.70;;;3.25;;
70247;SDS011;57641;51.416;5.506;2023-04-03T04:58:18;6.90;;;3.38;;
70247;SDS011;57641;51.416;5.506;2023-04-03T05:00:43;6.05;;;3.35;;
70247;SDS011;57641;51.416;5.506;2023-04-03T05:03:09;5.57;;;2.63;;
70247;SDS011;57641;51.416;5.506;2023-04-03T05:05:34;4.55;;;2.97;;
70247;SDS011;57641;51.416;5.506;2023-04-03T05:08:00;7.35;;;2.88;;
70247;SDS011;57641;51.416;5.506;2023-04-03T05:10:27;7.30;;;3.05;;
70247;SDS011;57641;51.416;5.506;2023-04-03T05:12:56;7.72;;;3.08;;
70247;SDS011;57641;51.416;5.506;2023-04-03T05:15:22;5.47;;;2.72;;
70247;SDS011;57641;51.416;5.506;2023-04-03T05:17:48;5.30;;;3.33;;
70247;SDS011;57641;51.416;5.506;2023-04-03T05:20:13;7.82;;;3.22;;
70247;SDS011;57641;51.416;5.506;2023-04-03T05:22:39;5.95;;;2.90;;
70247;SDS011;57641;51.416;5.506;2023-04-03T05:25:05;5.22;;;2.80;;
70247;SDS011;57641;51.416;5.506;2023-04-03T05:27:31;6.35;;;2.88;;
70247;SDS011;57641;51.416;5.506;2023-04-03T05:29:57;4.53;;;2.83;;
70247;SDS011;57641;51.416;5.506;2023-04-03T05:32:23;5.38;;;2.90;;
70247;SDS011;57641;51.416;5.506;2023-04-03T05:34:51;6.38;;;2.60;;
70247;SDS011;57641;51.416;5.506;2023-04-03T05:37:17;6.47;;;2.70;;
70247;SDS011;57641;51.416;5.506;2023-04-03T05:39:43;3.95;;;2.28;;
70247;SDS011;57641;51.416;5.506;2023-04-03T05:42:08;3.28;;;2.13;;
70247;SDS011;57641;51.416;5.506;2023-04-03T05:44:34;5.13;;;2.67;;
70247;SDS011;57641;51.416;5.506;2023-04-03T05:47:00;4.68;;;2.70;;
70247;SDS011;57641;51.416;5.506;2023-04-03T05:49:26;4.32;;;2.10;;
70247;SDS011;57641;51.416;5.506;2023-04-03T05:51:51;4.13;;;2.30;;
70247;SDS011;57641;51.416;5.506;2023-04-03T05:54:19;4.63;;;2.20;;
70247;SDS011;57641;51.416;5.506;2023-04-03T05:56:48;3.80;;;2.13;;
70247;SDS011;57641;51.416;5.506;2023-04-03T05:59:15;4.85;;;2.50;;
70247;SDS011;57641;51.416;5.506;2023-04-03T06:01:41;3.95;;;2.22;;
70247;SDS011;57641;51.416;5.506;2023-04-03T06:04:07;4.30;;;2.00;;
70247;SDS011;57641;51.416;5.506;2023-04-03T06:09:14;3.65;;;1.83;;
70247;SDS011;57641;51.416;5.506;2023-04-03T06:11:41;3.95;;;1.67;;
70247;SDS011;57641;51.416;5.506;2023-04-03T06:14:07;4.93;;;1.90;;
70247;SDS011;57641;51.416;5.506;2023-04-03T06:16:34;4.50;;;2.00;;
70247;SDS011;57641;51.416;5.506;2023-04-03T06:19:00;4.22;;;1.92;;
70247;SDS011;57641;51.416;5.506;2023-04-03T06:21:25;5.00;;;1.80;;
70247;SDS011;57641;51.416;5.506;2023-04-03T06:23:51;4.32;;;1.65;;
70247;SDS011;57641;51.416;5.506;2023-04-03T06:26:17;5.53;;;1.83;;
70247;SDS011;57641;51.416;5.506;2023-04-03T06:28:42;5.50;;;1.88;;
70247;SDS011;57641;51.416;5.506;2023-04-03T06:31:08;3.97;;;1.50;;
70247;SDS011;57641;51.416;5.506;2023-04-03T06:33:34;5.20;;;1.95;;
70247;SDS011;57641;51.416;5.506;2023-04-03T06:36:03;2.63;;;1.42;;
70247;SDS011;57641;51.416;5.506;2023-04-03T06:38:30;7.80;;;1.83;;
70247;SDS011;57641;51.416;5.506;2023-04-03T06:40:56;5.25;;;1.80;;
70247;SDS011;57641;51.416;5.506;2023-04-03T06:43:22;2.40;;;1.80;;
70247;SDS011;57641;51.416;5.506;2023-04-03T06:45:48;3.60;;;1.60;;
70247;SDS011;57641;51.416;5.506;2023-04-03T06:48:13;3.58;;;1.75;;
70247;SDS011;57641;51.416;5.506;2023-04-03T06:50:38;2.30;;;1.65;;
70247;SDS011;57641;51.416;5.506;2023-04-03T06:53:05;4.07;;;1.90;;
70247;SDS011;57641;51.416;5.506;2023-04-03T06:55:34;3.83;;;1.80;;
70247;SDS011;57641;51.416;5.506;2023-04-03T06:58:03;2.40;;;1.52;;
70247;SDS011;57641;51.416;5.506;2023-04-03T07:00:29;2.92;;;1.48;;
70247;SDS011;57641;51.416;5.506;2023-04-03T07:02:55;3.22;;;1.75;;
70247;SDS011;57641;51.416;5.506;2023-04-03T07:05:24;5.53;;;1.80;;
70247;SDS011;57641;51.416;5.506;2023-04-03T07:07:51;3.72;;;1.40;;
70247;SDS011;57641;51.416;5.506;2023-04-03T07:10:17;3.90;;;2.00;;
70247;SDS011;57641;51.416;5.506;2023-04-03T07:12:43;3.30;;;1.65;;
70247;SDS011;57641;51.416;5.506;2023-04-03T07:15:09;4.22;;;1.92;;
70247;SDS011;57641;51.416;5.506;2023-04-03T07:17:35;2.72;;;1.58;;
70247;SDS011;57641;51.416;5.506;2023-04-03T07:20:02;3.95;;;1.70;;
70247;SDS011;57641;51.416;5.506;2023-04-03T07:22:29;4.82;;;1.63;;
70247;SDS011;57641;51.416;5.506;2023-04-03T07:24:55;3.70;;;1.92;;
70247;SDS011;57641;51.416;5.506;2023-04-03T07:27:20;3.15;;;1.60;;
70247;SDS011;57641;51.416;5.506;2023-04-03T07:29:46;3.97;;;2.05;;
70247;SDS011;57641;51.416;5.506;2023-04-03T07:32:13;3.65;;;1.80;;
70247;SDS011;57641;51.416;5.506;2023-04-03T07:34:40;5.82;;;1.88;;
70247;SDS011;57641;51.416;5.506;2023-04-03T07:37:06;5.90;;;1.73;;
70247;SDS011;57641;51.416;5.506;2023-04-03T07:39:32;4.07;;;1.40;;
70247;SDS011;57641;51.416;5.506;2023-04-03T07:41:58;5.93;;;1.73;;
70247;SDS011;57641;51.416;5.506;2023-04-03T07:44:24;4.85;;;1.73;;
70247;SDS011;57641;51.416;5.506;2023-04-03T07:46:50;4.07;;;1.45;;
70247;SDS011;57641;51.416;5.506;2023-04-03T07:49:16;5.00;;;2.33;;
70247;SDS011;57641;51.416;5.506;2023-04-03T07:51:43;4.07;;;1.55;;
70247;SDS011;57641;51.416;5.506;2023-04-03T07:54:09;5.25;;;1.92;;
70247;SDS011;57641;51.416;5.506;2023-04-03T07:56:35;2.97;;;1.60;;
70247;SDS011;57641;51.416;5.506;2023-04-03T07:59:01;4.53;;;2.28;;
70247;SDS011;57641;51.416;5.506;2023-04-03T08:01:27;5.18;;;1.65;;
70247;SDS011;57641;51.416;5.506;2023-04-03T08:03:54;5.57;;;1.90;;
70247;SDS011;57641;51.416;5.506;2023-04-03T08:06:20;2.17;;;1.40;;
70247;SDS011;57641;51.416;5.506;2023-04-03T08:08:45;2.67;;;1.58;;
70247;SDS011;57641;51.416;5.506;2023-04-03T08:11:11;4.43;;;1.88;;
70247;SDS011;57641;51.416;5.506;2023-04-03T08:13:37;4.20;;;1.60;;
70247;SDS011;57641;51.416;5.506;2023-04-03T08:16:10;4.40;;;1.50;;
70247;SDS011;57641;51.416;5.506;2023-04-03T08:18:37;2.42;;;1.48;;
70247;SDS011;57641;51.416;5.506;2023-04-03T08:21:08;5.78;;;1.65;;
70247;SDS011;57641;51.416;5.506;2023-04-03T08:23:38;6.18;;;1.45;;
70247;SDS011;57641;51.416;5.506;2023-04-03T08:26:08;3.53;;;1.20;;
70247;SDS011;57641;51.416;5.506;2023-04-03T08:28:35;1.85;;;1.27;;
70247;SDS011;57641;51.416;5.506;2023-04-03T08:31:05;2.67;;;1.20;;
70247;SDS011;57641;51.416;5.506;2023-04-03T08:33:32;3.10;;;1.30;;
70247;SDS011;57641;51.416;5.506;2023-04-03T08:36:01;4.57;;;1.40;;
70247;SDS011;57641;51.416;5.506;2023-04-03T08:38:27;4.82;;;1.30;;
70247;SDS011;57641;51.416;5.506;2023-04-03T08:41:04;3.25;;;1.30;;
70247;SDS011;57641;51.416;5.506;2023-04-03T08:43:55;2.80;;;1.10;;
70247;SDS011;57641;51.416;5.506;2023-04-03T08:46:23;2.83;;;1.20;;
70247;SDS011;57641;51.416;5.506;2023-04-03T08:48:57;2.25;;;1.00;;
70247;SDS011;57641;51.416;5.506;2023-04-03T08:51:23;3.53;;;1.00;;
70247;SDS011;57641;51.416;5.506;2023-04-03T08:56:22;2.33;;;1.02;;
70247;SDS011;57641;51.416;5.506;2023-04-03T08:58:55;3.55;;;1.30;;
70247;SDS011;57641;51.416;5.506;2023-04-03T09:01:25;2.53;;;1.20;;
70247;SDS011;57641;51.416;5.506;2023-04-03T09:04:11;3.22;;;1.15;;
70247;SDS011;57641;51.416;5.506;2023-04-03T09:06:39;1.33;;;0.70;;
70247;SDS011;57641;51.416;5.506;2023-04-03T09:16:59;2.13;;;0.90;;
70247;SDS011;57641;51.416;5.506;2023-04-03T09:21:56;1.45;;;0.73;;
70247;SDS011;57641;51.416;5.506;2023-04-03T09:24:23;0.95;;;0.60;;
70247;SDS011;57641;51.416;5.506;2023-04-03T09:26:56;1.15;;;0.50;;
70247;SDS011;57641;51.416;5.506;2023-04-03T09:29:27;1.48;;;0.70;;
70247;SDS011;57641;51.416;5.506;2023-04-03T09:31:57;1.30;;;0.70;;
70247;SDS011;57641;51.416;5.506;2023-04-03T09:34:32;2.50;;;0.80;;
70247;SDS011;57641;51.416;5.506;2023-04-03T09:37:02;1.60;;;0.90;;
70247;SDS011;57641;51.416;5.506;2023-04-03T09:39:31;3.28;;;0.70;;
70247;SDS011;57641;51.416;5.506;2023-04-03T09:42:03;3.55;;;0.60;;
70247;SDS011;57641;51.416;5.506;2023-04-03T09:44:37;1.10;;;0.60;;
70247;SDS011;57641;51.416;5.506;2023-04-03T09:47:22;1.52;;;0.90;;
70247;SDS011;57641;51.416;5.506;2023-04-03T09:49:51;2.05;;;0.90;;
70247;SDS011;57641;51.416;5.506;2023-04-03T09:52:46;4.20;;;0.60;;
70247;SDS011;57641;51.416;5.506;2023-04-03T09:57:55;2.05;;;0.82;;
70247;SDS011;57641;51.416;5.506;2023-04-03T10:00:28;4.95;;;0.88;;
70247;SDS011;57641;51.416;5.506;2023-04-03T10:02:59;1.05;;;0.60;;
70247;SDS011;57641;51.416;5.506;2023-04-03T10:10:39;1.02;;;0.70;;
70247;SDS011;57641;51.416;5.506;2023-04-03T10:13:09;1.92;;;0.80;;
70247;SDS011;57641;51.416;5.506;2023-04-03T10:15:50;1.75;;;0.98;;
70247;SDS011;57641;51.416;5.506;2023-04-03T10:24:06;1.23;;;0.50;;
70247;SDS011;57641;51.416;5.506;2023-04-03T10:34:54;1.17;;;0.52;;
70247;SDS011;57641;51.416;5.506;2023-04-03T10:45:30;1.40;;;0.60;;
70247;SDS011;57641;51.416;5.506;2023-04-03T10:53:52;0.73;;;0.50;;
70247;SDS011;57641;51.416;5.506;2023-04-03T10:59:17;1.15;;;0.45;;
70247;SDS011;57641;51.416;5.506;2023-04-03T11:01:49;0.82;;;0.47;;
70247;SDS011;57641;51.416;5.506;2023-04-03T11:04:19;0.85;;;0.68;;
70247;SDS011;57641;51.416;5.506;2023-04-03T11:09:26;1.17;;;0.60;;
70247;SDS011;57641;51.416;5.506;2023-04-03T11:12:29;1.67;;;0.52;;
70247;SDS011;57641;51.416;5.506;2023-04-03T11:14:58;1.60;;;0.47;;
70247;SDS011;57641;51.416;5.506;2023-04-03T11:17:33;0.77;;;0.63;;
70247;SDS011;57641;51.416;5.506;2023-04-03T11:20:13;2.65;;;0.50;;
70247;SDS011;57641;51.416;5.506;2023-04-03T11:25:29;1.17;;;0.68;;
70247;SDS011;57641;51.416;5.506;2023-04-03T11:28:00;1.50;;;0.70;;
70247;SDS011;57641;51.416;5.506;2023-04-03T11:35:37;2.05;;;0.75;;
70247;SDS011;57641;51.416;5.506;2023-04-03T11:38:10;0.90;;;0.45;;
70247;SDS011;57641;51.416;5.506;2023-04-03T11:40:45;0.75;;;0.68;;
70247;SDS011;57641;51.416;5.506;2023-04-03T11:46:04;1.75;;;0.50;;
70247;SDS011;57641;51.416;5.506;2023-04-03T11:51:00;2.13;;;0.60;;
70247;SDS011;57641;51.416;5.506;2023-04-03T11:56:00;1.92;;;0.60;;
70247;SDS011;57641;51.416;5.506;2023-04-03T11:58:32;1.02;;;0.40;;
70247;SDS011;57641;51.416;5.506;2023-04-03T12:01:00;1.88;;;0.70;;
70247;SDS011;57641;51.416;5.506;2023-04-03T12:03:55;1.00;;;0.60;;
70247;SDS011;57641;51.416;5.506;2023-04-03T12:09:01;1.00;;;0.50;;
70247;SDS011;57641;51.416;5.506;2023-04-03T12:11:29;3.53;;;0.75;;
70247;SDS011;57641;51.416;5.506;2023-04-03T12:32:29;1.33;;;0.70;;
70247;SDS011;57641;51.416;5.506;2023-04-03T12:48:15;1.13;;;0.50;;
70247;SDS011;57641;51.416;5.506;2023-04-03T12:50:43;0.90;;;0.60;;
70247;SDS011;57641;51.416;5.506;2023-04-03T12:53:18;1.23;;;0.75;;
70247;SDS011;57641;51.416;5.506;2023-04-03T12:55:49;1.65;;;0.73;;
70247;SDS011;57641;51.416;5.506;2023-04-03T12:58:24;1.27;;;0.52;;
70247;SDS011;57641;51.416;5.506;2023-04-03T13:00:58;1.88;;;0.73;;
70247;SDS011;57641;51.416;5.506;2023-04-03T13:03:29;1.67;;;0.70;;
70247;SDS011;57641;51.416;5.506;2023-04-03T13:05:59;1.10;;;0.90;;
70247;SDS011;57641;51.416;5.506;2023-04-03T13:08:28;1.10;;;0.73;;
70247;SDS011;57641;51.416;5.506;2023-04-03T13:10:58;1.45;;;0.70;;
70247;SDS011;57641;51.416;5.506;2023-04-03T13:13:26;1.00;;;0.80;;
70247;SDS011;57641;51.416;5.506;2023-04-03T13:15:56;2.53;;;1.00;;
70247;SDS011;57641;51.416;5.506;2023-04-03T13:18:26;3.67;;;0.98;;
70247;SDS011;57641;51.416;5.506;2023-04-03T13:23:34;1.95;;;1.00;;
70247;SDS011;57641;51.416;5.506;2023-04-03T13:26:02;1.83;;;0.90;;
70247;SDS011;57641;51.416;5.506;2023-04-03T13:28:30;3.17;;;0.90;;
70247;SDS011;57641;51.416;5.506;2023-04-03T13:31:05;2.95;;;1.17;;
70247;SDS011;57641;51.416;5.506;2023-04-03T13:33:39;2.97;;;0.95;;
70247;SDS011;57641;51.416;5.506;2023-04-03T13:36:19;1.65;;;0.85;;
70247;SDS011;57641;51.416;5.506;2023-04-03T13:39:05;1.17;;;0.80;;
70247;SDS011;57641;51.416;5.506;2023-04-03T13:41:41;2.85;;;1.00;;
70247;SDS011;57641;51.416;5.506;2023-04-03T13:44:28;1.40;;;0.77;;
70247;SDS011;57641;51.416;5.506;2023-04-03T13:46:58;1.75;;;0.70;;
70247;SDS011;57641;51.416;5.506;2023-04-03T13:49:40;1.88;;;0.85;;
70247;SDS011;57641;51.416;5.506;2023-04-03T13:52:29;2.28;;;0.80;;
70247;SDS011;57641;51.416;5.506;2023-04-03T14:00:47;1.40;;;0.82;;
70247;SDS011;57641;51.416;5.506;2023-04-03T14:05:55;2.13;;;0.90;;
70247;SDS011;57641;51.416;5.506;2023-04-03T14:08:21;2.38;;;0.80;;
70247;SDS011;57641;51.416;5.506;2023-04-03T14:10:47;0.98;;;0.80;;
70247;SDS011;57641;51.416;5.506;2023-04-03T14:13:15;1.63;;;0.90;;
70247;SDS011;57641;51.416;5.506;2023-04-03T14:15:42;1.58;;;1.10;;
70247;SDS011;57641;51.416;5.506;2023-04-03T14:18:12;1.88;;;1.00;;
70247;SDS011;57641;51.416;5.506;2023-04-03T14:20:39;2.05;;;1.00;;
70247;SDS011;57641;51.416;5.506;2023-04-03T14:23:05;2.80;;;1.00;;
70247;SDS011;57641;51.416;5.506;2023-04-03T14:25:31;2.80;;;1.20;;
70247;SDS011;57641;51.416;5.506;2023-04-03T14:27:58;1.08;;;0.82;;
70247;SDS011;57641;51.416;5.506;2023-04-03T14:30:26;2.42;;;1.00;;
70247;SDS011;57641;51.416;5.506;2023-04-03T14:32:54;0.93;;;0.80;;
70247;SDS011;57641;51.416;5.506;2023-04-03T14:35:21;3.10;;;1.20;;
70247;SDS011;57641;51.416;5.506;2023-04-03T14:37:48;2.45;;;0.90;;
70247;SDS011;57641;51.416;5.506;2023-04-03T14:40:16;1.92;;;0.85;;
70247;SDS011;57641;51.416;5.506;2023-04-03T14:42:44;2.10;;;1.08;;
70247;SDS011;57641;51.416;5.506;2023-04-03T14:45:12;2.67;;;1.10;;
70247;SDS011;57641;51.416;5.506;2023-04-03T14:47:48;2.00;;;1.13;;
70247;SDS011;57641;51.416;5.506;2023-04-03T14:50:17;3.72;;;1.20;;
70247;SDS011;57641;51.416;5.506;2023-04-03T14:52:47;2.72;;;1.23;;
70247;SDS011;57641;51.416;5.506;2023-04-03T14:55:17;2.03;;;1.35;;
70247;SDS011;57641;51.416;5.506;2023-04-03T14:57:44;3.45;;;1.52;;
70247;SDS011;57641;51.416;5.506;2023-04-03T15:00:17;4.05;;;1.35;;
70247;SDS011;57641;51.416;5.506;2023-04-03T15:02:46;3.15;;;1.20;;
70247;SDS011;57641;51.416;5.506;2023-04-03T15:05:13;2.90;;;1.23;;
70247;SDS011;57641;51.416;5.506;2023-04-03T15:07:42;2.10;;;0.98;;
70247;SDS011;57641;51.416;5.506;2023-04-03T15:10:16;2.72;;;1.33;;
70247;SDS011;57641;51.416;5.506;2023-04-03T15:12:46;1.50;;;0.90;;
70247;SDS011;57641;51.416;5.506;2023-04-03T15:15:13;2.28;;;0.90;;
70247;SDS011;57641;51.416;5.506;2023-04-03T15:17:40;1.90;;;1.17;;
70247;SDS011;57641;51.416;5.506;2023-04-03T15:20:11;2.85;;;1.08;;
70247;SDS011;57641;51.416;5.506;2023-04-03T15:22:40;2.20;;;1.13;;
70247;SDS011;57641;51.416;5.506;2023-04-03T15:25:07;2.70;;;1.13;;
70247;SDS011;57641;51.416;5.506;2023-04-03T15:27:33;2.17;;;1.08;;
70247;SDS011;57641;51.416;5.506;2023-04-03T15:29:59;1.50;;;1.00;;
70247;SDS011;57641;51.416;5.506;2023-04-03T15:32:25;3.38;;;1.48;;
70247;SDS011;57641;51.416;5.506;2023-04-03T15:34:51;1.88;;;1.05;;
70247;SDS011;57641;51.416;5.506;2023-04-03T15:37:16;1.67;;;0.93;;
70247;SDS011;57641;51.416;5.506;2023-04-03T15:39:42;2.03;;;1.00;;
70247;SDS011;57641;51.416;5.506;2023-04-03T15:42:07;2.33;;;1.17;;
70247;SDS011;57641;51.416;5.506;2023-04-03T15:44:33;3.00;;;1.48;;
70247;SDS011;57641;51.416;5.506;2023-04-03T15:47:00;3.90;;;1.27;;
70247;SDS011;57641;51.416;5.506;2023-04-03T15:49:26;4.25;;;1.38;;
70247;SDS011;57641;51.416;5.506;2023-04-03T15:51:52;2.35;;;1.10;;
70247;SDS011;57641;51.416;5.506;2023-04-03T15:54:18;3.08;;;1.00;;
70247;SDS011;57641;51.416;5.506;2023-04-03T15:56:49;3.35;;;1.08;;
70247;SDS011;57641;51.416;5.506;2023-04-03T15:59:14;3.22;;;0.90;;
70247;SDS011;57641;51.416;5.506;2023-04-03T16:01:40;2.38;;;0.95;;
70247;SDS011;57641;51.416;5.506;2023-04-03T16:04:07;3.45;;;1.05;;
70247;SDS011;57641;51.416;5.506;2023-04-03T16:06:35;3.80;;;1.50;;
70247;SDS011;57641;51.416;5.506;2023-04-03T16:09:04;1.95;;;1.00;;
70247;SDS011;57641;51.416;5.506;2023-04-03T16:11:30;2.42;;;1.00;;
70247;SDS011;57641;51.416;5.506;2023-04-03T16:13:58;1.70;;;1.10;;
70247;SDS011;57641;51.416;5.506;2023-04-03T16:16:24;1.88;;;1.25;;
70247;SDS011;57641;51.416;5.506;2023-04-03T16:18:53;2.05;;;1.02;;
70247;SDS011;57641;51.416;5.506;2023-04-03T16:21:21;3.00;;;1.10;;
70247;SDS011;57641;51.416;5.506;2023-04-03T16:23:47;3.70;;;1.10;;
70247;SDS011;57641;51.416;5.506;2023-04-03T16:26:12;2.83;;;1.20;;
70247;SDS011;57641;51.416;5.506;2023-04-03T16:28:39;2.90;;;1.10;;
70247;SDS011;57641;51.416;5.506;2023-04-03T16:31:07;1.60;;;1.00;;
70247;SDS011;57641;51.416;5.506;2023-04-03T16:33:33;2.47;;;1.15;;
70247;SDS011;57641;51.416;5.506;2023-04-03T16:36:00;2.97;;;1.08;;
70247;SDS011;57641;51.416;5.506;2023-04-03T16:38:26;2.67;;;1.38;;
70247;SDS011;57641;51.416;5.506;2023-04-03T16:40:51;3.00;;;1.20;;
70247;SDS011;57641;51.416;5.506;2023-04-03T16:43:22;3.10;;;1.10;;
70247;SDS011;57641;51.416;5.506;2023-04-03T16:45:48;3.42;;;1.05;;
70247;SDS011;57641;51.416;5.506;2023-04-03T16:48:13;2.70;;;1.20;;
70247;SDS011;57641;51.416;5.506;2023-04-03T16:50:39;4.82;;;1.20;;
70247;SDS011;57641;51.416;5.506;2023-04-03T16:53:04;1.65;;;1.20;;
70247;SDS011;57641;51.416;5.506;2023-04-03T16:55:33;3.22;;;1.20;;
70247;SDS011;57641;51.416;5.506;2023-04-03T16:57:59;2.80;;;0.95;;